createdAt,value
2023-04-12T00:01:12.294Z,13.92
2023-04-12T00:03:40.002Z,13.89
2023-04-12T00:06:08.202Z,13.99
2023-04-12T00:08:35.750Z,13.96
2023-04-12T00:11:03.930Z,13.85
2023-04-12T00:13:31.452Z,13.94
2023-04-12T00:15:59.429Z,13.87
2023-04-12T00:18:27.457Z,13.74
2023-04-12T00:20:57.652Z,13.78
2023-04-12T00:23:25.457Z,13.75
2023-04-12T00:25:52.991Z,13.78
2023-04-12T00:28:20.579Z,13.89
2023-04-12T00:30:48.064Z,13.80
2023-04-12T00:33:15.466Z,13.72
2023-04-12T00:35:42.932Z,13.81
2023-04-12T00:38:11.072Z,13.77
2023-04-12T00:40:43.286Z,13.83
2023-04-12T00:43:15.659Z,13.74
2023-04-12T00:45:43.174Z,13.69
2023-04-12T00:48:11.339Z,13.45
2023-04-12T00:50:44.891Z,13.45
2023-04-12T00:53:14.562Z,13.56
2023-04-12T00:55:46.522Z,13.59
2023-04-12T00:58:14.934Z,13.60
2023-04-12T01:00:50.258Z,13.57
2023-04-12T01:03:23.265Z,13.53
2023-04-12T01:06:14.022Z,13.65
2023-04-12T01:09:09.209Z,13.67
2023-04-12T01:11:44.584Z,13.64
2023-04-12T01:14:22.315Z,13.62
2023-04-12T01:16:58.375Z,13.62
2023-04-12T01:19:36.092Z,13.60
2023-04-12T01:22:32.796Z,13.60
2023-04-12T01:25:09.695Z,13.62
2023-04-12T01:27:48.341Z,13.51
2023-04-12T01:30:19.414Z,13.44
2023-04-12T01:32:53.521Z,13.53
2023-04-12T01:35:24.440Z,13.54
2023-04-12T01:37:52.852Z,13.53
2023-04-12T01:40:20.841Z,13.58
2023-04-12T01:42:48.241Z,13.36
2023-04-12T01:45:15.696Z,13.50
2023-04-12T01:47:43.178Z,13.38
2023-04-12T01:50:19.706Z,13.52
2023-04-12T01:53:07.218Z,13.48
2023-04-12T01:55:37.968Z,13.62
2023-04-12T01:58:06.443Z,13.66
2023-04-12T02:00:36.832Z,13.56
2023-04-12T02:03:06.141Z,13.55
2023-04-12T02:05:34.220Z,13.52
2023-04-12T02:08:03.353Z,13.55
2023-04-12T02:10:32.484Z,13.57
2023-04-12T02:13:00.854Z,13.75
2023-04-12T02:15:29.286Z,13.74
2023-04-12T02:17:59.457Z,13.77
2023-04-12T02:20:27.366Z,13.73
2023-04-12T02:22:55.244Z,13.72
2023-04-12T02:25:22.868Z,13.62
2023-04-12T02:27:50.527Z,13.77
2023-04-12T02:30:18.886Z,13.72
2023-04-12T02:32:51.548Z,13.68
2023-04-12T02:35:25.115Z,13.75
2023-04-12T02:37:58.379Z,13.57
2023-04-12T02:40:30.561Z,13.71
2023-04-12T02:42:58.758Z,13.68
2023-04-12T02:45:27.411Z,13.71
2023-04-12T02:47:55.745Z,13.67
2023-04-12T02:50:27.509Z,13.58
2023-04-12T02:53:02.161Z,13.59
2023-04-12T02:56:01.348Z,13.62
2023-04-12T02:58:30.734Z,13.56
2023-04-12T03:01:00.245Z,13.46
2023-04-12T03:03:34.276Z,13.48
2023-04-12T03:06:12.509Z,13.49
2023-04-12T03:08:39.956Z,13.41
2023-04-12T03:11:07.497Z,13.45
2023-04-12T03:13:35.022Z,13.35
2023-04-12T03:16:21.799Z,13.44
2023-04-12T03:18:51.723Z,13.38
2023-04-12T03:21:21.564Z,13.33
2023-04-12T03:23:49.216Z,13.34
2023-04-12T03:26:20.528Z,13.45
2023-04-12T03:29:01.197Z,13.35
2023-04-12T03:31:31.825Z,13.34
2023-04-12T03:34:04.580Z,13.36
2023-04-12T03:36:33.064Z,13.21
2023-04-12T03:39:10.801Z,13.20
2023-04-12T03:41:39.276Z,13.15
2023-04-12T03:44:07.754Z,13.26
2023-04-12T03:46:36.559Z,13.24
2023-04-12T03:49:08.490Z,13.30
2023-04-12T03:51:35.975Z,13.34
2023-04-12T03:54:04.633Z,13.31
2023-04-12T03:56:43.207Z,13.30
2023-04-12T03:59:19.382Z,13.34
2023-04-12T04:01:50.011Z,13.39
2023-04-12T04:04:17.899Z,13.56
2023-04-12T04:06:46.485Z,13.58
2023-04-12T04:09:14.102Z,13.58
2023-04-12T04:11:43.666Z,13.49
2023-04-12T04:14:11.275Z,13.55
2023-04-12T04:16:38.960Z,13.54
2023-04-12T04:19:09.006Z,13.63
2023-04-12T04:21:36.499Z,13.51
2023-04-12T04:24:04.710Z,13.45
2023-04-12T04:26:38.374Z,13.49
2023-04-12T04:29:23.721Z,13.55
2023-04-12T04:31:52.636Z,13.56
2023-04-12T04:34:22.377Z,13.45
2023-04-12T04:36:52.843Z,13.54
2023-04-12T04:39:27.240Z,13.42
2023-04-12T04:41:57.575Z,13.57
2023-04-12T04:44:41.595Z,13.31
2023-04-12T04:47:11.887Z,13.33
2023-04-12T04:49:39.316Z,13.44
2023-04-12T04:52:32.746Z,13.53
2023-04-12T04:55:09.850Z,13.53
2023-04-12T04:57:40.867Z,13.50
2023-04-12T05:00:11.846Z,13.38
2023-04-12T05:02:45.770Z,13.43
2023-04-12T05:05:17.892Z,13.49
2023-04-12T05:07:47.418Z,13.56
2023-04-12T05:10:15.485Z,13.60
2023-04-12T05:12:43.890Z,13.48
2023-04-12T05:15:14.465Z,13.39
2023-04-12T05:17:42.207Z,13.39
2023-04-12T05:20:10.966Z,13.46
2023-04-12T05:22:39.681Z,13.47
2023-04-12T05:25:07.385Z,13.40
2023-04-12T05:27:40.356Z,13.49
2023-04-12T05:30:10.228Z,13.41
2023-04-12T05:32:37.760Z,13.43
2023-04-12T05:35:06.058Z,13.48
2023-04-12T05:37:35.002Z,13.37
2023-04-12T05:40:02.495Z,13.44
2023-04-12T05:42:30.129Z,13.40
2023-04-12T05:44:59.099Z,13.50
2023-04-12T05:47:26.642Z,13.52
2023-04-12T05:49:56.419Z,13.59
2023-04-12T05:52:23.903Z,13.55
2023-04-12T05:54:52.806Z,13.57
2023-04-12T05:57:21.770Z,13.57
2023-04-12T05:59:49.787Z,13.54
2023-04-12T06:02:19.011Z,13.57
2023-04-12T06:04:51.482Z,13.52
2023-04-12T06:07:23.376Z,13.68
2023-04-12T06:09:50.893Z,13.58
2023-04-12T06:12:19.111Z,13.68
2023-04-12T06:14:47.535Z,13.73
2023-04-12T06:17:20.278Z,13.66
2023-04-12T06:19:47.856Z,13.73
2023-04-12T06:22:15.867Z,13.74
2023-04-12T06:24:43.764Z,13.74
2023-04-12T06:27:12.421Z,13.67
2023-04-12T06:29:39.900Z,13.74
2023-04-12T06:32:07.501Z,13.75
2023-04-12T06:34:35.475Z,13.75
2023-04-12T06:37:07.806Z,13.87
2023-04-12T06:39:35.157Z,13.88
2023-04-12T06:42:03.174Z,13.96
2023-04-12T06:44:30.645Z,13.94
2023-04-12T06:46:58.102Z,13.92
2023-04-12T06:49:25.777Z,13.91
2023-04-12T06:51:53.191Z,13.89
2023-04-12T06:54:20.892Z,13.89
2023-04-12T06:56:48.289Z,13.98
2023-04-12T06:59:15.773Z,13.88
2023-04-12T07:01:43.668Z,13.98
2023-04-12T07:04:12.016Z,14.06
2023-04-12T07:06:39.641Z,14.15
2023-04-12T07:09:07.025Z,14.14
2023-04-12T07:11:34.904Z,14.16
2023-04-12T07:14:02.405Z,14.12
2023-04-12T07:16:31.555Z,14.05
2023-04-12T07:19:00.127Z,14.15
2023-04-12T07:21:28.229Z,14.12
2023-04-12T07:23:56.205Z,14.15
2023-04-12T07:26:23.833Z,13.96
2023-04-12T07:28:51.187Z,14.10
2023-04-12T07:31:18.789Z,14.18
2023-04-12T07:33:46.332Z,14.22
2023-04-12T07:36:16.365Z,14.10
2023-04-12T07:38:44.159Z,14.17
2023-04-12T07:41:11.588Z,14.19
2023-04-12T07:43:38.986Z,14.11
2023-04-12T07:46:08.730Z,14.09
2023-04-12T07:48:36.308Z,14.16
2023-04-12T07:51:04.286Z,14.07
2023-04-12T07:53:31.635Z,14.18
2023-04-12T07:55:59.078Z,14.13
2023-04-12T07:58:26.446Z,14.34
2023-04-12T08:00:53.880Z,14.33
2023-04-12T08:03:21.368Z,14.39
2023-04-12T08:05:53.493Z,14.37
2023-04-12T08:08:24.135Z,14.49
2023-04-12T08:10:52.705Z,14.49
2023-04-12T08:13:20.675Z,14.42
2023-04-12T08:15:48.315Z,14.47
2023-04-12T08:18:15.923Z,14.56
2023-04-12T08:20:47.183Z,14.58
2023-04-12T08:23:14.708Z,14.53
2023-04-12T08:25:42.007Z,14.56
2023-04-12T08:28:09.362Z,14.57
2023-04-12T08:30:36.962Z,14.47
2023-04-12T08:33:04.571Z,14.51
2023-04-12T08:35:32.786Z,14.53
2023-04-12T08:38:06.701Z,14.50
2023-04-12T08:40:34.213Z,14.39
2023-04-12T08:43:05.627Z,14.48
2023-04-12T08:45:35.494Z,14.45
2023-04-12T08:48:04.791Z,14.42
2023-04-12T08:50:33.035Z,14.40
2023-04-12T08:53:00.380Z,14.39
2023-04-12T08:55:44.269Z,14.45
2023-04-12T08:58:15.172Z,14.53
2023-04-12T09:00:44.406Z,14.49
2023-04-12T09:03:12.001Z,14.54
2023-04-12T09:05:39.773Z,14.51
2023-04-12T09:08:07.292Z,14.67
2023-04-12T09:10:37.147Z,14.74
2023-04-12T09:13:06.065Z,14.92
2023-04-12T09:15:34.555Z,14.90
2023-04-12T09:18:03.612Z,14.90
2023-04-12T09:20:31.385Z,14.97
2023-04-12T09:22:59.390Z,14.92
2023-04-12T09:25:39.805Z,14.92
2023-04-12T09:28:25.728Z,15.12
2023-04-12T09:30:55.043Z,15.33
2023-04-12T09:33:35.511Z,15.36
2023-04-12T09:36:06.718Z,15.28
2023-04-12T09:38:36.872Z,15.29
2023-04-12T09:41:27.113Z,15.32
2023-04-12T09:43:54.998Z,15.18
2023-04-12T09:46:23.264Z,15.08
2023-04-12T09:48:52.750Z,15.10
2023-04-12T09:51:31.389Z,15.41
2023-04-12T09:54:04.404Z,15.45
2023-04-12T09:56:34.420Z,15.50
2023-04-12T09:59:04.543Z,15.15
2023-04-12T10:01:38.659Z,15.15
2023-04-12T10:04:08.773Z,15.14
2023-04-12T10:06:41.571Z,15.10
2023-04-12T10:09:09.634Z,15.20
2023-04-12T10:11:40.637Z,15.21
2023-04-12T10:14:09.961Z,15.41
2023-04-12T10:16:40.639Z,15.35
2023-04-12T10:19:09.691Z,15.36
2023-04-12T10:21:37.340Z,15.45
2023-04-12T10:24:07.121Z,15.49
2023-04-12T10:26:35.068Z,15.43
2023-04-12T10:29:32.780Z,15.64
2023-04-12T10:32:23.476Z,15.56
2023-04-12T10:34:58.893Z,15.50
2023-04-12T10:38:04.685Z,15.77
2023-04-12T10:40:33.829Z,15.60
2023-04-12T10:43:19.593Z,15.70
2023-04-12T10:45:47.147Z,15.78
2023-04-12T10:48:32.631Z,15.91
2023-04-12T10:51:28.064Z,15.92
2023-04-12T10:54:19.391Z,15.90
2023-04-12T10:56:47.769Z,15.97
2023-04-12T10:59:34.166Z,16.00
2023-04-12T11:02:04.982Z,16.13
2023-04-12T11:04:33.012Z,16.10
2023-04-12T11:07:12.277Z,16.16
2023-04-12T11:09:43.434Z,15.96
2023-04-12T11:12:16.648Z,16.00
2023-04-12T11:14:50.259Z,15.94
2023-04-12T11:17:21.801Z,15.82
2023-04-12T11:19:55.560Z,15.96
2023-04-12T11:22:25.510Z,16.10
2023-04-12T11:24:55.171Z,16.18
2023-04-12T11:27:23.917Z,16.08
2023-04-12T11:29:55.573Z,15.94
2023-04-12T11:32:24.176Z,16.10
2023-04-12T11:34:51.766Z,16.09
2023-04-12T11:37:20.674Z,16.24
2023-04-12T11:39:51.933Z,16.29
2023-04-12T11:42:22.834Z,16.37
2023-04-12T11:47:24.073Z,16.20
2023-04-12T11:49:56.393Z,16.20
2023-04-12T11:52:32.123Z,16.20
2023-04-12T11:55:06.750Z,16.30
2023-04-12T11:57:34.906Z,16.01
2023-04-12T12:00:07.040Z,16.03
2023-04-12T12:02:48.888Z,16.21
2023-04-12T12:05:21.228Z,16.15
2023-04-12T12:07:49.252Z,16.05
2023-04-12T12:10:31.699Z,16.14
2023-04-12T12:13:12.857Z,16.26
2023-04-12T12:15:45.189Z,16.29
2023-04-12T12:18:12.582Z,16.51
2023-04-12T12:20:42.069Z,16.33
2023-04-12T12:23:09.644Z,16.48
2023-04-12T12:25:37.263Z,16.55
2023-04-12T12:28:05.818Z,16.57
2023-04-12T12:30:39.958Z,16.62
2023-04-12T12:33:09.988Z,16.79
2023-04-12T12:35:37.556Z,16.97
2023-04-12T12:38:08.631Z,16.91
2023-04-12T12:40:36.349Z,16.77
2023-04-12T12:43:03.882Z,16.94
2023-04-12T12:45:32.847Z,16.98
2023-04-12T12:48:04.637Z,17.04
2023-04-12T12:50:34.495Z,17.21
2023-04-12T12:53:06.232Z,17.35
2023-04-12T12:55:33.482Z,17.47
2023-04-12T13:00:31.679Z,17.32
2023-04-12T13:02:59.590Z,17.26
2023-04-12T13:05:27.288Z,17.56
2023-04-12T13:07:54.922Z,17.66
2023-04-12T13:10:23.538Z,17.57
2023-04-12T13:12:51.498Z,17.70
2023-04-12T13:15:23.941Z,17.67
2023-04-12T13:17:52.946Z,17.50
2023-04-12T13:20:21.134Z,17.58
2023-04-12T13:22:48.969Z,17.63
2023-04-12T13:25:16.776Z,17.61
2023-04-12T13:27:44.259Z,17.67
2023-04-12T13:30:12.100Z,17.54
2023-04-12T13:32:39.632Z,17.44
2023-04-12T13:35:07.436Z,17.35
2023-04-12T13:37:34.812Z,17.38
2023-04-12T13:40:02.865Z,17.53
2023-04-12T13:42:30.239Z,17.46
2023-04-12T13:44:57.775Z,17.25
2023-04-12T13:47:27.219Z,17.32
2023-04-12T13:49:54.722Z,17.20
2023-04-12T13:52:22.312Z,17.17
2023-04-12T13:54:51.408Z,16.98
2023-04-12T13:57:22.592Z,16.95
2023-04-12T13:59:50.192Z,16.92
2023-04-12T14:02:17.805Z,16.82
2023-04-12T14:04:53.074Z,16.93
2023-04-12T14:07:21.102Z,16.78
2023-04-12T14:09:48.882Z,16.77
2023-04-12T14:12:16.360Z,16.67
2023-04-12T14:14:43.850Z,16.60
2023-04-12T14:17:11.542Z,16.62
2023-04-12T14:19:38.955Z,16.58
2023-04-12T14:22:06.445Z,16.60
2023-04-12T14:24:33.795Z,16.63
2023-04-12T14:27:02.506Z,16.60
2023-04-12T14:29:29.959Z,16.60
2023-04-12T14:31:57.360Z,16.51
2023-04-12T14:34:24.824Z,16.40
2023-04-12T14:36:52.293Z,16.46
2023-04-12T14:39:19.740Z,16.43
2023-04-12T14:41:47.240Z,16.49
2023-04-12T14:44:14.735Z,16.52
2023-04-12T14:46:42.212Z,16.37
2023-04-12T14:49:09.635Z,16.40
2023-04-12T14:51:37.139Z,16.39
2023-04-12T14:54:04.506Z,16.42
2023-04-12T14:56:34.146Z,16.40
2023-04-12T14:59:04.878Z,16.46
2023-04-12T15:01:33.938Z,16.29
2023-04-12T15:04:04.153Z,16.35
2023-04-12T15:06:35.032Z,16.29
2023-04-12T15:09:06.521Z,16.31
2023-04-12T15:11:35.725Z,16.41
2023-04-12T15:14:04.246Z,16.39
2023-04-12T15:16:31.570Z,16.36
2023-04-12T15:19:02.867Z,16.31
2023-04-12T15:21:32.122Z,16.31
2023-04-12T15:23:59.539Z,16.31
2023-04-12T15:26:27.631Z,16.26
2023-04-12T15:28:55.254Z,16.24
2023-04-12T15:31:23.083Z,16.23
2023-04-12T15:33:50.557Z,16.20
2023-04-12T15:36:20.343Z,16.21
2023-04-12T15:38:47.696Z,16.27
2023-04-12T15:41:15.018Z,16.20
2023-04-12T15:43:45.148Z,16.15
2023-04-12T15:46:13.976Z,16.21
2023-04-12T15:48:41.679Z,16.20
2023-04-12T15:51:09.010Z,16.20
2023-04-12T15:53:36.344Z,16.12
2023-04-12T15:56:16.110Z,16.01
2023-04-12T15:58:43.442Z,15.94
2023-04-12T16:01:10.814Z,15.95
2023-04-12T16:03:38.361Z,15.96
2023-04-12T16:06:06.408Z,15.94
2023-04-12T16:08:33.844Z,15.91
2023-04-12T16:11:01.382Z,15.91
2023-04-12T16:13:28.729Z,15.91
2023-04-12T16:15:56.169Z,15.97
2023-04-12T16:18:23.564Z,15.77
2023-04-12T16:20:52.155Z,15.72
2023-04-12T16:23:19.672Z,15.83
2023-04-12T16:25:47.367Z,15.81
2023-04-12T16:28:17.717Z,15.85
2023-04-12T16:30:45.163Z,15.90
2023-04-12T16:33:12.952Z,15.79
2023-04-12T16:35:40.686Z,15.76
2023-04-12T16:38:08.328Z,15.69
2023-04-12T16:40:35.719Z,15.72
2023-04-12T16:43:03.894Z,15.53
2023-04-12T16:45:33.355Z,15.52
2023-04-12T16:48:01.217Z,15.60
2023-04-12T16:50:29.445Z,15.45
2023-04-12T16:52:56.889Z,15.57
2023-04-12T16:55:25.297Z,15.62
2023-04-12T16:57:56.091Z,15.66
2023-04-12T17:00:25.335Z,15.61
2023-04-12T17:02:54.243Z,15.64
2023-04-12T17:05:23.056Z,15.61
2023-04-12T17:07:54.032Z,15.64
2023-04-12T17:10:23.133Z,15.60
2023-04-12T17:12:52.850Z,15.52
2023-04-12T17:15:22.034Z,15.46
2023-04-12T17:17:51.925Z,15.39
2023-04-12T17:20:22.159Z,15.28
2023-04-12T17:22:50.174Z,15.35
2023-04-12T17:25:19.028Z,15.42
2023-04-12T17:27:48.669Z,15.42
2023-04-12T17:30:17.855Z,15.38
2023-04-12T17:32:47.479Z,15.45
2023-04-12T17:35:16.356Z,15.45
2023-04-12T17:37:44.399Z,15.40
2023-04-12T17:40:12.489Z,15.36
2023-04-12T17:42:42.032Z,15.45
2023-04-12T17:45:12.526Z,15.41
2023-04-12T17:47:41.050Z,15.28
2023-04-12T17:50:11.680Z,15.32
2023-04-12T17:52:39.418Z,15.39
2023-04-12T17:55:09.352Z,15.22
2023-04-12T17:57:37.148Z,15.30
2023-04-12T18:00:09.323Z,15.25
2023-04-12T18:02:40.786Z,15.18
2023-04-12T18:05:08.770Z,15.13
2023-04-12T18:07:37.110Z,15.18
2023-04-12T18:10:05.588Z,15.29
2023-04-12T18:12:33.053Z,15.24
2023-04-12T18:15:00.438Z,15.21
2023-04-12T18:17:27.890Z,15.15
2023-04-12T18:19:55.483Z,15.17
2023-04-12T18:22:22.878Z,15.16
2023-04-12T18:24:50.196Z,15.09
2023-04-12T18:27:17.699Z,15.06
2023-04-12T18:29:45.149Z,15.15
2023-04-12T18:32:12.571Z,15.17
2023-04-12T18:34:39.921Z,15.12
2023-04-12T18:37:07.828Z,15.17
2023-04-12T18:39:35.920Z,15.07
2023-04-12T18:42:03.382Z,15.09
2023-04-12T18:44:31.415Z,15.11
2023-04-12T18:46:58.840Z,15.10
2023-04-12T18:49:29.621Z,15.06
2023-04-12T18:51:58.874Z,14.90
2023-04-12T18:54:27.866Z,14.96
2023-04-12T18:56:58.249Z,15.06
2023-04-12T18:59:25.944Z,14.96
2023-04-12T19:01:53.864Z,14.99
2023-04-12T19:04:23.711Z,14.99
2023-04-12T19:07:00.208Z,15.00
2023-04-12T19:09:30.742Z,15.06
2023-04-12T19:12:00.639Z,14.91
2023-04-12T19:14:30.712Z,14.87
2023-04-12T19:17:01.241Z,14.98
2023-04-12T19:19:35.908Z,14.96
2023-04-12T19:22:10.901Z,14.81
2023-04-12T19:24:44.097Z,14.87
2023-04-12T19:27:14.760Z,14.84
2023-04-12T19:29:49.342Z,14.78
2023-04-12T19:32:20.650Z,14.68
2023-04-12T19:34:54.876Z,14.69
2023-04-12T19:37:23.874Z,14.76
2023-04-12T19:39:56.862Z,14.82
2023-04-12T19:42:35.763Z,14.67
2023-04-12T19:45:06.550Z,14.62
2023-04-12T19:47:46.077Z,14.66
2023-04-12T19:50:18.132Z,14.67
2023-04-12T19:52:58.960Z,14.71
2023-04-12T19:55:34.402Z,14.61
2023-04-12T19:58:05.309Z,14.56
2023-04-12T20:00:39.242Z,14.71
2023-04-12T20:03:09.930Z,14.76
2023-04-12T20:05:40.069Z,14.66
2023-04-12T20:08:08.802Z,14.78
2023-04-12T20:10:40.475Z,14.70
2023-04-12T20:13:17.445Z,14.56
2023-04-12T20:15:48.726Z,14.62
2023-04-12T20:18:16.948Z,14.54
2023-04-12T20:20:45.812Z,14.62
2023-04-12T20:23:13.864Z,14.58
2023-04-12T20:25:42.858Z,14.55
2023-04-12T20:28:11.003Z,14.49
2023-04-12T20:30:39.372Z,14.50
2023-04-12T20:33:14.565Z,14.56
2023-04-12T20:35:43.480Z,14.49
2023-04-12T20:38:16.263Z,14.60
2023-04-12T20:40:45.991Z,14.37
2023-04-12T20:43:14.616Z,14.43
2023-04-12T20:45:43.203Z,14.33
2023-04-12T20:48:13.039Z,14.36
2023-04-12T20:50:41.342Z,14.27
2023-04-12T20:53:16.082Z,14.30
2023-04-12T20:56:11.273Z,14.17
2023-04-12T20:58:39.158Z,14.15
2023-04-12T21:01:08.009Z,14.01
2023-04-12T21:03:38.466Z,14.10
2023-04-12T21:06:06.922Z,14.15
2023-04-12T21:08:35.839Z,14.16
2023-04-12T21:11:03.662Z,14.13
2023-04-12T21:13:31.360Z,14.16
2023-04-12T21:15:59.177Z,14.12
2023-04-12T21:18:28.321Z,14.16
2023-04-12T21:20:59.430Z,13.94
2023-04-12T21:23:28.015Z,13.70
2023-04-12T21:25:56.098Z,13.52
2023-04-12T21:28:23.706Z,13.31
2023-04-12T21:30:55.229Z,13.27
2023-04-12T21:33:26.281Z,13.28
2023-04-12T21:35:57.097Z,13.10
2023-04-12T21:38:24.711Z,13.03
2023-04-12T21:40:52.515Z,12.89
2023-04-12T21:43:22.486Z,12.85
2023-04-12T21:45:49.994Z,12.73
2023-04-12T21:48:17.317Z,12.74
2023-04-12T21:50:44.801Z,12.65
2023-04-12T21:53:12.288Z,12.67
2023-04-12T21:55:39.976Z,12.51
2023-04-12T21:58:07.412Z,12.69
2023-04-12T22:00:35.065Z,12.69
2023-04-12T22:03:02.775Z,12.31
2023-04-12T22:05:30.610Z,12.31
2023-04-12T22:07:57.940Z,12.22
2023-04-12T22:10:25.736Z,12.24
2023-04-12T22:12:53.987Z,12.36
2023-04-12T22:15:21.544Z,12.36
2023-04-12T22:17:49.230Z,12.25
2023-04-12T22:20:16.724Z,12.30
2023-04-12T22:22:44.433Z,12.22
2023-04-12T22:25:12.728Z,12.23
2023-04-12T22:27:40.326Z,12.25
2023-04-12T22:30:11.899Z,12.35
2023-04-12T22:32:40.112Z,12.37
2023-04-12T22:35:09.279Z,12.39
2023-04-12T22:37:41.163Z,12.24
2023-04-12T22:40:12.448Z,12.17
2023-04-12T22:42:46.583Z,12.19
2023-04-12T22:45:16.209Z,12.12
2023-04-12T22:47:44.732Z,12.10
2023-04-12T22:50:13.191Z,12.12
2023-04-12T22:52:41.997Z,12.24
2023-04-12T22:55:12.875Z,12.12
2023-04-12T22:57:40.361Z,12.09
2023-04-12T23:00:08.418Z,11.99
2023-04-12T23:02:36.420Z,11.84
2023-04-12T23:05:04.532Z,11.73
2023-04-12T23:07:32.259Z,11.71
2023-04-12T23:09:59.542Z,11.84
2023-04-12T23:12:27.038Z,11.82
2023-04-12T23:14:55.831Z,11.76
2023-04-12T23:17:23.497Z,11.69
2023-04-12T23:19:51.693Z,11.78
2023-04-12T23:22:52.801Z,11.76
2023-04-12T23:25:24.604Z,11.88
2023-04-12T23:27:51.980Z,11.96
2023-04-12T23:30:20.213Z,11.95
2023-04-12T23:32:48.299Z,11.81
2023-04-12T23:35:15.892Z,11.82
2023-04-12T23:37:43.326Z,11.90
2023-04-12T23:40:14.418Z,11.95
2023-04-12T23:42:43.655Z,11.90
2023-04-12T23:45:12.093Z,11.88
2023-04-12T23:47:39.503Z,11.87
2023-04-12T23:50:07.665Z,11.82
2023-04-12T23:52:35.999Z,11.86
2023-04-12T23:55:03.585Z,11.90
2023-04-12T23:57:30.923Z,11.88
2023-04-12T23:59:58.235Z,11.94
